sensor_id;sensor_type;location;lat;lon;timestamp;P1;durP1;ratioP1;P2;durP2;ratioP2
16826;SDS011;8530;49.540;8.576;2022-09-17T00:01:49;2.37;;;2.17;;
16826;SDS011;8530;49.540;8.576;2022-09-17T00:04:17;3.30;;;1.87;;
16826;SDS011;8530;49.540;8.576;2022-09-17T00:06:44;3.23;;;2.17;;
16826;SDS011;8530;49.540;8.576;2022-09-17T00:09:10;1.83;;;1.63;;
16826;SDS011;8530;49.540;8.576;2022-09-17T00:11:38;2.67;;;1.83;;
16826;SDS011;8530;49.540;8.576;2022-09-17T00:14:09;2.20;;;1.63;;
16826;SDS011;8530;49.540;8.576;2022-09-17T00:16:40;1.83;;;1.73;;
16826;SDS011;8530;49.540;8.576;2022-09-17T00:19:09;2.13;;;1.93;;
16826;SDS011;8530;49.540;8.576;2022-09-17T00:21:39;8.27;;;2.13;;
16826;SDS011;8530;49.540;8.576;2022-09-17T00:24:08;4.03;;;2.10;;
16826;SDS011;8530;49.540;8.576;2022-09-17T00:26:36;2.30;;;2.10;;
16826;SDS011;8530;49.540;8.576;2022-09-17T00:29:03;2.30;;;2.10;;
16826;SDS011;8530;49.540;8.576;2022-09-17T00:31:32;2.20;;;2.00;;
16826;SDS011;8530;49.540;8.576;2022-09-17T00:33:59;2.50;;;2.17;;
16826;SDS011;8530;49.540;8.576;2022-09-17T00:36:27;7.33;;;2.50;;
16826;SDS011;8530;49.540;8.576;2022-09-17T00:38:55;2.13;;;1.93;;
16826;SDS011;8530;49.540;8.576;2022-09-17T00:41:24;3.30;;;1.97;;
16826;SDS011;8530;49.540;8.576;2022-09-17T00:43:53;4.33;;;1.70;;
16826;SDS011;8530;49.540;8.576;2022-09-17T00:46:23;5.53;;;2.03;;
16826;SDS011;8530;49.540;8.576;2022-09-17T00:48:55;6.20;;;2.33;;
16826;SDS011;8530;49.540;8.576;2022-09-17T00:51:26;3.43;;;2.00;;
16826;SDS011;8530;49.540;8.576;2022-09-17T00:53:57;4.00;;;2.60;;
16826;SDS011;8530;49.540;8.576;2022-09-17T00:56:26;3.90;;;2.00;;
16826;SDS011;8530;49.540;8.576;2022-09-17T00:58:56;4.17;;;2.30;;
16826;SDS011;8530;49.540;8.576;2022-09-17T01:01:25;5.13;;;1.97;;
16826;SDS011;8530;49.540;8.576;2022-09-17T01:03:52;5.03;;;2.00;;
16826;SDS011;8530;49.540;8.576;2022-09-17T01:06:21;4.43;;;2.10;;
16826;SDS011;8530;49.540;8.576;2022-09-17T01:08:59;4.60;;;2.27;;
16826;SDS011;8530;49.540;8.576;2022-09-17T01:11:39;3.30;;;2.30;;
16826;SDS011;8530;49.540;8.576;2022-09-17T01:14:20;4.57;;;2.50;;
16826;SDS011;8530;49.540;8.576;2022-09-17T01:16:59;5.73;;;2.50;;
16826;SDS011;8530;49.540;8.576;2022-09-17T01:22:44;2.63;;;2.00;;
16826;SDS011;8530;49.540;8.576;2022-09-17T01:25:22;3.63;;;2.17;;
16826;SDS011;8530;49.540;8.576;2022-09-17T01:28:13;5.40;;;2.50;;
16826;SDS011;8530;49.540;8.576;2022-09-17T01:30:56;2.37;;;2.10;;
16826;SDS011;8530;49.540;8.576;2022-09-17T01:33:29;4.57;;;2.03;;
16826;SDS011;8530;49.540;8.576;2022-09-17T01:36:05;5.60;;;2.70;;
16826;SDS011;8530;49.540;8.576;2022-09-17T01:38:42;3.63;;;2.47;;
16826;SDS011;8530;49.540;8.576;2022-09-17T01:41:15;13.10;;;2.37;;
16826;SDS011;8530;49.540;8.576;2022-09-17T01:43:49;2.60;;;2.07;;
16826;SDS011;8530;49.540;8.576;2022-09-17T01:46:21;5.40;;;2.40;;
16826;SDS011;8530;49.540;8.576;2022-09-17T01:48:54;5.60;;;2.23;;
16826;SDS011;8530;49.540;8.576;2022-09-17T01:51:23;4.10;;;2.43;;
16826;SDS011;8530;49.540;8.576;2022-09-17T01:53:55;4.80;;;2.60;;
16826;SDS011;8530;49.540;8.576;2022-09-17T01:56:27;4.17;;;1.93;;
16826;SDS011;8530;49.540;8.576;2022-09-17T01:58:59;7.20;;;2.40;;
16826;SDS011;8530;49.540;8.576;2022-09-17T02:01:34;3.30;;;2.60;;
16826;SDS011;8530;49.540;8.576;2022-09-17T02:04:04;6.23;;;2.47;;
16826;SDS011;8530;49.540;8.576;2022-09-17T02:06:34;3.30;;;2.20;;
16826;SDS011;8530;49.540;8.576;2022-09-17T02:09:07;5.20;;;2.23;;
16826;SDS011;8530;49.540;8.576;2022-09-17T02:11:39;7.90;;;2.80;;
16826;SDS011;8530;49.540;8.576;2022-09-17T02:14:10;11.60;;;2.50;;
16826;SDS011;8530;49.540;8.576;2022-09-17T02:16:43;4.70;;;2.37;;
16826;SDS011;8530;49.540;8.576;2022-09-17T02:19:16;9.23;;;2.70;;
16826;SDS011;8530;49.540;8.576;2022-09-17T02:21:46;3.30;;;2.50;;
16826;SDS011;8530;49.540;8.576;2022-09-17T02:24:19;3.63;;;2.50;;
16826;SDS011;8530;49.540;8.576;2022-09-17T02:26:50;3.07;;;2.67;;
16826;SDS011;8530;49.540;8.576;2022-09-17T02:29:24;5.57;;;3.53;;
16826;SDS011;8530;49.540;8.576;2022-09-17T02:31:58;18.17;;;3.53;;
16826;SDS011;8530;49.540;8.576;2022-09-17T02:34:25;3.93;;;2.30;;
16826;SDS011;8530;49.540;8.576;2022-09-17T02:36:53;5.73;;;2.60;;
16826;SDS011;8530;49.540;8.576;2022-09-17T02:39:20;2.87;;;2.33;;
16826;SDS011;8530;49.540;8.576;2022-09-17T02:41:50;10.73;;;2.83;;
16826;SDS011;8530;49.540;8.576;2022-09-17T02:44:23;4.77;;;2.33;;
16826;SDS011;8530;49.540;8.576;2022-09-17T02:47:02;8.73;;;2.80;;
16826;SDS011;8530;49.540;8.576;2022-09-17T02:52:47;3.23;;;2.90;;
16826;SDS011;8530;49.540;8.576;2022-09-17T02:55:25;2.63;;;2.40;;
16826;SDS011;8530;49.540;8.576;2022-09-17T02:57:57;3.00;;;2.70;;
16826;SDS011;8530;49.540;8.576;2022-09-17T03:00:31;12.30;;;2.97;;
16826;SDS011;8530;49.540;8.576;2022-09-17T03:03:02;3.73;;;2.90;;
16826;SDS011;8530;49.540;8.576;2022-09-17T03:05:33;8.53;;;2.80;;
16826;SDS011;8530;49.540;8.576;2022-09-17T03:08:03;4.70;;;2.93;;
16826;SDS011;8530;49.540;8.576;2022-09-17T03:10:34;3.63;;;2.83;;
16826;SDS011;8530;49.540;8.576;2022-09-17T03:13:01;3.33;;;2.60;;
16826;SDS011;8530;49.540;8.576;2022-09-17T03:15:28;10.00;;;3.20;;
16826;SDS011;8530;49.540;8.576;2022-09-17T03:17:55;3.60;;;2.47;;
16826;SDS011;8530;49.540;8.576;2022-09-17T03:20:23;3.20;;;2.90;;
16826;SDS011;8530;49.540;8.576;2022-09-17T03:22:50;5.83;;;2.53;;
16826;SDS011;8530;49.540;8.576;2022-09-17T03:25:17;4.70;;;2.57;;
16826;SDS011;8530;49.540;8.576;2022-09-17T03:27:44;5.00;;;3.40;;
16826;SDS011;8530;49.540;8.576;2022-09-17T03:30:12;4.50;;;3.00;;
16826;SDS011;8530;49.540;8.576;2022-09-17T03:32:38;3.47;;;2.60;;
16826;SDS011;8530;49.540;8.576;2022-09-17T03:35:06;3.37;;;2.83;;
16826;SDS011;8530;49.540;8.576;2022-09-17T03:37:34;10.70;;;2.70;;
16826;SDS011;8530;49.540;8.576;2022-09-17T03:40:01;7.70;;;2.93;;
16826;SDS011;8530;49.540;8.576;2022-09-17T03:42:28;5.50;;;3.50;;
16826;SDS011;8530;49.540;8.576;2022-09-17T03:44:55;13.43;;;3.37;;
16826;SDS011;8530;49.540;8.576;2022-09-17T03:47:22;7.50;;;2.50;;
16826;SDS011;8530;49.540;8.576;2022-09-17T03:49:48;2.40;;;2.07;;
16826;SDS011;8530;49.540;8.576;2022-09-17T03:52:16;8.37;;;2.50;;
16826;SDS011;8530;49.540;8.576;2022-09-17T03:54:44;3.13;;;2.13;;
16826;SDS011;8530;49.540;8.576;2022-09-17T03:57:11;2.90;;;2.43;;
16826;SDS011;8530;49.540;8.576;2022-09-17T03:59:38;5.00;;;2.37;;
16826;SDS011;8530;49.540;8.576;2022-09-17T04:02:04;9.93;;;2.70;;
16826;SDS011;8530;49.540;8.576;2022-09-17T04:04:31;3.70;;;2.10;;
16826;SDS011;8530;49.540;8.576;2022-09-17T04:06:58;2.60;;;2.40;;
16826;SDS011;8530;49.540;8.576;2022-09-17T04:09:25;9.13;;;2.40;;
16826;SDS011;8530;49.540;8.576;2022-09-17T04:11:53;4.40;;;2.57;;
16826;SDS011;8530;49.540;8.576;2022-09-17T04:14:20;11.03;;;2.87;;
16826;SDS011;8530;49.540;8.576;2022-09-17T04:16:46;5.47;;;2.30;;
16826;SDS011;8530;49.540;8.576;2022-09-17T04:19:13;12.53;;;2.73;;
16826;SDS011;8530;49.540;8.576;2022-09-17T04:21:40;4.57;;;2.50;;
16826;SDS011;8530;49.540;8.576;2022-09-17T04:24:06;4.07;;;2.33;;
16826;SDS011;8530;49.540;8.576;2022-09-17T04:26:33;7.10;;;2.63;;
16826;SDS011;8530;49.540;8.576;2022-09-17T04:29:01;5.10;;;2.47;;
16826;SDS011;8530;49.540;8.576;2022-09-17T04:31:28;8.53;;;2.90;;
16826;SDS011;8530;49.540;8.576;2022-09-17T04:33:55;6.00;;;2.53;;
16826;SDS011;8530;49.540;8.576;2022-09-17T04:36:21;5.47;;;2.77;;
16826;SDS011;8530;49.540;8.576;2022-09-17T04:38:48;5.70;;;2.60;;
16826;SDS011;8530;49.540;8.576;2022-09-17T04:41:15;14.23;;;2.97;;
16826;SDS011;8530;49.540;8.576;2022-09-17T04:43:42;3.67;;;2.00;;
16826;SDS011;8530;49.540;8.576;2022-09-17T04:46:10;11.00;;;3.90;;
16826;SDS011;8530;49.540;8.576;2022-09-17T04:48:38;11.33;;;2.93;;
16826;SDS011;8530;49.540;8.576;2022-09-17T04:51:05;4.57;;;1.93;;
16826;SDS011;8530;49.540;8.576;2022-09-17T04:53:31;4.33;;;2.27;;
16826;SDS011;8530;49.540;8.576;2022-09-17T04:55:58;10.63;;;2.53;;
16826;SDS011;8530;49.540;8.576;2022-09-17T04:58:25;2.53;;;2.10;;
16826;SDS011;8530;49.540;8.576;2022-09-17T05:00:55;5.17;;;2.40;;
16826;SDS011;8530;49.540;8.576;2022-09-17T05:03:23;3.43;;;2.20;;
16826;SDS011;8530;49.540;8.576;2022-09-17T05:05:52;4.43;;;2.10;;
16826;SDS011;8530;49.540;8.576;2022-09-17T05:08:20;4.53;;;2.60;;
16826;SDS011;8530;49.540;8.576;2022-09-17T05:10:50;4.90;;;2.70;;
16826;SDS011;8530;49.540;8.576;2022-09-17T05:13:20;11.67;;;2.80;;
16826;SDS011;8530;49.540;8.576;2022-09-17T05:15:47;12.13;;;2.53;;
16826;SDS011;8530;49.540;8.576;2022-09-17T05:18:14;9.67;;;2.40;;
16826;SDS011;8530;49.540;8.576;2022-09-17T05:20:42;6.37;;;2.67;;
16826;SDS011;8530;49.540;8.576;2022-09-17T05:23:10;5.53;;;3.60;;
16826;SDS011;8530;49.540;8.576;2022-09-17T05:25:37;3.60;;;2.47;;
16826;SDS011;8530;49.540;8.576;2022-09-17T05:28:04;6.27;;;2.20;;
16826;SDS011;8530;49.540;8.576;2022-09-17T05:30:31;2.73;;;2.17;;
16826;SDS011;8530;49.540;8.576;2022-09-17T05:32:58;6.63;;;2.77;;
16826;SDS011;8530;49.540;8.576;2022-09-17T05:35:26;4.70;;;2.30;;
16826;SDS011;8530;49.540;8.576;2022-09-17T05:37:56;3.20;;;2.40;;
16826;SDS011;8530;49.540;8.576;2022-09-17T05:40:24;5.40;;;2.63;;
16826;SDS011;8530;49.540;8.576;2022-09-17T05:42:56;5.53;;;2.53;;
16826;SDS011;8530;49.540;8.576;2022-09-17T05:45:23;7.50;;;2.07;;
16826;SDS011;8530;49.540;8.576;2022-09-17T05:47:53;3.83;;;3.27;;
16826;SDS011;8530;49.540;8.576;2022-09-17T05:50:20;4.20;;;2.10;;
16826;SDS011;8530;49.540;8.576;2022-09-17T05:52:47;2.53;;;2.27;;
16826;SDS011;8530;49.540;8.576;2022-09-17T05:55:15;2.80;;;2.53;;
16826;SDS011;8530;49.540;8.576;2022-09-17T05:57:42;7.03;;;2.50;;
16826;SDS011;8530;49.540;8.576;2022-09-17T06:00:09;5.40;;;2.87;;
16826;SDS011;8530;49.540;8.576;2022-09-17T06:02:37;3.77;;;2.30;;
16826;SDS011;8530;49.540;8.576;2022-09-17T06:05:04;6.07;;;3.03;;
16826;SDS011;8530;49.540;8.576;2022-09-17T06:07:33;8.20;;;2.57;;
16826;SDS011;8530;49.540;8.576;2022-09-17T06:10:00;9.47;;;2.67;;
16826;SDS011;8530;49.540;8.576;2022-09-17T06:12:28;2.87;;;2.47;;
16826;SDS011;8530;49.540;8.576;2022-09-17T06:14:55;10.30;;;2.50;;
16826;SDS011;8530;49.540;8.576;2022-09-17T06:17:21;11.20;;;2.73;;
16826;SDS011;8530;49.540;8.576;2022-09-17T06:19:48;2.37;;;1.97;;
16826;SDS011;8530;49.540;8.576;2022-09-17T06:22:16;8.20;;;3.07;;
16826;SDS011;8530;49.540;8.576;2022-09-17T06:24:44;9.10;;;2.90;;
16826;SDS011;8530;49.540;8.576;2022-09-17T06:27:10;6.23;;;2.70;;
16826;SDS011;8530;49.540;8.576;2022-09-17T06:29:38;6.40;;;2.80;;
16826;SDS011;8530;49.540;8.576;2022-09-17T06:32:06;7.20;;;3.00;;
16826;SDS011;8530;49.540;8.576;2022-09-17T06:34:34;4.83;;;2.87;;
16826;SDS011;8530;49.540;8.576;2022-09-17T06:37:01;7.90;;;3.20;;
16826;SDS011;8530;49.540;8.576;2022-09-17T06:39:28;4.73;;;2.40;;
16826;SDS011;8530;49.540;8.576;2022-09-17T06:41:54;3.87;;;2.13;;
16826;SDS011;8530;49.540;8.576;2022-09-17T06:44:21;13.13;;;2.53;;
16826;SDS011;8530;49.540;8.576;2022-09-17T06:46:49;4.70;;;2.23;;
16826;SDS011;8530;49.540;8.576;2022-09-17T06:49:16;8.00;;;2.80;;
16826;SDS011;8530;49.540;8.576;2022-09-17T06:51:43;10.20;;;2.97;;
16826;SDS011;8530;49.540;8.576;2022-09-17T06:54:12;3.90;;;2.70;;
16826;SDS011;8530;49.540;8.576;2022-09-17T06:56:39;3.20;;;2.00;;
16826;SDS011;8530;49.540;8.576;2022-09-17T06:59:05;6.00;;;2.50;;
16826;SDS011;8530;49.540;8.576;2022-09-17T07:01:32;8.50;;;2.30;;
16826;SDS011;8530;49.540;8.576;2022-09-17T07:04:01;6.73;;;2.80;;
16826;SDS011;8530;49.540;8.576;2022-09-17T07:06:28;4.13;;;3.17;;
16826;SDS011;8530;49.540;8.576;2022-09-17T07:08:54;4.70;;;2.10;;
16826;SDS011;8530;49.540;8.576;2022-09-17T07:11:21;6.00;;;2.77;;
16826;SDS011;8530;49.540;8.576;2022-09-17T07:13:48;6.80;;;2.13;;
16826;SDS011;8530;49.540;8.576;2022-09-17T07:16:15;5.97;;;2.80;;
16826;SDS011;8530;49.540;8.576;2022-09-17T07:18:42;4.37;;;2.33;;
16826;SDS011;8530;49.540;8.576;2022-09-17T07:21:10;11.30;;;3.23;;
16826;SDS011;8530;49.540;8.576;2022-09-17T07:23:36;10.73;;;2.73;;
16826;SDS011;8530;49.540;8.576;2022-09-17T07:26:04;9.63;;;2.40;;
16826;SDS011;8530;49.540;8.576;2022-09-17T07:28:32;10.37;;;3.30;;
16826;SDS011;8530;49.540;8.576;2022-09-17T07:31:01;8.20;;;2.97;;
16826;SDS011;8530;49.540;8.576;2022-09-17T07:33:29;7.73;;;2.10;;
16826;SDS011;8530;49.540;8.576;2022-09-17T07:35:57;6.00;;;1.60;;
16826;SDS011;8530;49.540;8.576;2022-09-17T07:38:26;2.70;;;1.50;;
16826;SDS011;8530;49.540;8.576;2022-09-17T07:40:55;4.50;;;1.60;;
16826;SDS011;8530;49.540;8.576;2022-09-17T07:43:23;9.63;;;1.57;;
16826;SDS011;8530;49.540;8.576;2022-09-17T07:45:50;6.03;;;1.60;;
16826;SDS011;8530;49.540;8.576;2022-09-17T07:48:17;6.10;;;1.53;;
16826;SDS011;8530;49.540;8.576;2022-09-17T07:50:44;7.07;;;1.80;;
16826;SDS011;8530;49.540;8.576;2022-09-17T07:53:11;4.20;;;1.67;;
16826;SDS011;8530;49.540;8.576;2022-09-17T07:55:39;5.17;;;1.70;;
16826;SDS011;8530;49.540;8.576;2022-09-17T07:58:06;3.37;;;1.60;;
16826;SDS011;8530;49.540;8.576;2022-09-17T08:00:33;5.50;;;1.90;;
16826;SDS011;8530;49.540;8.576;2022-09-17T08:03:00;7.87;;;1.77;;
16826;SDS011;8530;49.540;8.576;2022-09-17T08:05:27;10.50;;;2.13;;
16826;SDS011;8530;49.540;8.576;2022-09-17T08:07:54;4.70;;;1.70;;
16826;SDS011;8530;49.540;8.576;2022-09-17T08:10:21;7.17;;;1.97;;
16826;SDS011;8530;49.540;8.576;2022-09-17T08:12:53;6.83;;;1.30;;
16826;SDS011;8530;49.540;8.576;2022-09-17T08:15:20;2.10;;;1.20;;
16826;SDS011;8530;49.540;8.576;2022-09-17T08:17:48;7.03;;;1.47;;
16826;SDS011;8530;49.540;8.576;2022-09-17T08:20:15;5.03;;;2.67;;
16826;SDS011;8530;49.540;8.576;2022-09-17T08:22:42;5.30;;;1.97;;
16826;SDS011;8530;49.540;8.576;2022-09-17T08:25:09;4.17;;;1.27;;
16826;SDS011;8530;49.540;8.576;2022-09-17T08:27:36;4.90;;;2.10;;
16826;SDS011;8530;49.540;8.576;2022-09-17T08:30:06;5.03;;;1.77;;
16826;SDS011;8530;49.540;8.576;2022-09-17T08:32:33;6.80;;;2.40;;
16826;SDS011;8530;49.540;8.576;2022-09-17T08:34:59;4.87;;;1.87;;
16826;SDS011;8530;49.540;8.576;2022-09-17T08:37:26;9.80;;;2.37;;
16826;SDS011;8530;49.540;8.576;2022-09-17T08:39:53;5.10;;;2.10;;
16826;SDS011;8530;49.540;8.576;2022-09-17T08:42:22;6.00;;;2.07;;
16826;SDS011;8530;49.540;8.576;2022-09-17T08:44:56;6.73;;;1.90;;
16826;SDS011;8530;49.540;8.576;2022-09-17T08:47:27;6.27;;;2.57;;
16826;SDS011;8530;49.540;8.576;2022-09-17T08:49:56;5.13;;;1.93;;
16826;SDS011;8530;49.540;8.576;2022-09-17T08:55:29;10.63;;;2.60;;
16826;SDS011;8530;49.540;8.576;2022-09-17T08:58:05;6.43;;;2.10;;
16826;SDS011;8530;49.540;8.576;2022-09-17T09:00:49;8.30;;;1.70;;
16826;SDS011;8530;49.540;8.576;2022-09-17T09:03:27;6.47;;;2.20;;
16826;SDS011;8530;49.540;8.576;2022-09-17T09:06:03;13.90;;;2.57;;
16826;SDS011;8530;49.540;8.576;2022-09-17T09:08:32;10.70;;;2.27;;
16826;SDS011;8530;49.540;8.576;2022-09-17T09:11:02;10.07;;;2.97;;
16826;SDS011;8530;49.540;8.576;2022-09-17T09:13:32;5.43;;;2.27;;
16826;SDS011;8530;49.540;8.576;2022-09-17T09:16:04;7.57;;;2.10;;
16826;SDS011;8530;49.540;8.576;2022-09-17T09:18:39;10.83;;;2.50;;
16826;SDS011;8530;49.540;8.576;2022-09-17T09:21:11;5.63;;;2.03;;
16826;SDS011;8530;49.540;8.576;2022-09-17T09:23:48;5.50;;;1.80;;
16826;SDS011;8530;49.540;8.576;2022-09-17T09:26:19;6.63;;;2.40;;
16826;SDS011;8530;49.540;8.576;2022-09-17T09:28:51;5.97;;;2.03;;
16826;SDS011;8530;49.540;8.576;2022-09-17T09:31:59;8.70;;;1.90;;
16826;SDS011;8530;49.540;8.576;2022-09-17T09:34:41;7.47;;;2.20;;
16826;SDS011;8530;49.540;8.576;2022-09-17T09:37:11;7.80;;;2.00;;
16826;SDS011;8530;49.540;8.576;2022-09-17T09:39:42;5.60;;;2.37;;
16826;SDS011;8530;49.540;8.576;2022-09-17T09:42:13;4.47;;;1.70;;
16826;SDS011;8530;49.540;8.576;2022-09-17T09:44:48;4.33;;;2.10;;
16826;SDS011;8530;49.540;8.576;2022-09-17T09:47:28;14.23;;;2.90;;
16826;SDS011;8530;49.540;8.576;2022-09-17T09:50:10;2.40;;;1.70;;
16826;SDS011;8530;49.540;8.576;2022-09-17T09:52:51;5.23;;;1.80;;
16826;SDS011;8530;49.540;8.576;2022-09-17T09:58:21;14.23;;;1.80;;
16826;SDS011;8530;49.540;8.576;2022-09-17T10:00:54;7.10;;;2.27;;
16826;SDS011;8530;49.540;8.576;2022-09-17T10:03:22;7.70;;;2.10;;
16826;SDS011;8530;49.540;8.576;2022-09-17T10:05:53;5.90;;;2.00;;
16826;SDS011;8530;49.540;8.576;2022-09-17T10:08:22;3.97;;;1.73;;
16826;SDS011;8530;49.540;8.576;2022-09-17T10:10:53;13.03;;;2.40;;
16826;SDS011;8530;49.540;8.576;2022-09-17T10:13:21;14.43;;;2.17;;
16826;SDS011;8530;49.540;8.576;2022-09-17T10:15:49;9.20;;;1.70;;
16826;SDS011;8530;49.540;8.576;2022-09-17T10:18:16;4.43;;;1.50;;
16826;SDS011;8530;49.540;8.576;2022-09-17T10:20:47;7.10;;;2.33;;
16826;SDS011;8530;49.540;8.576;2022-09-17T10:23:20;4.73;;;1.73;;
16826;SDS011;8530;49.540;8.576;2022-09-17T10:25:47;7.23;;;1.67;;
16826;SDS011;8530;49.540;8.576;2022-09-17T10:31:03;4.37;;;1.80;;
16826;SDS011;8530;49.540;8.576;2022-09-17T10:33:34;4.20;;;1.60;;
16826;SDS011;8530;49.540;8.576;2022-09-17T10:36:05;3.60;;;1.40;;
16826;SDS011;8530;49.540;8.576;2022-09-17T10:38:36;5.87;;;2.67;;
16826;SDS011;8530;49.540;8.576;2022-09-17T10:41:08;3.83;;;1.90;;
16826;SDS011;8530;49.540;8.576;2022-09-17T10:43:36;4.97;;;1.87;;
16826;SDS011;8530;49.540;8.576;2022-09-17T10:46:04;6.57;;;1.80;;
16826;SDS011;8530;49.540;8.576;2022-09-17T10:48:36;2.80;;;1.37;;
16826;SDS011;8530;49.540;8.576;2022-09-17T10:51:07;6.60;;;2.07;;
16826;SDS011;8530;49.540;8.576;2022-09-17T10:53:44;5.90;;;2.43;;
16826;SDS011;8530;49.540;8.576;2022-09-17T10:56:30;3.93;;;1.60;;
16826;SDS011;8530;49.540;8.576;2022-09-17T10:59:03;3.40;;;1.50;;
16826;SDS011;8530;49.540;8.576;2022-09-17T11:01:53;3.50;;;1.53;;
16826;SDS011;8530;49.540;8.576;2022-09-17T11:04:32;6.33;;;1.90;;
16826;SDS011;8530;49.540;8.576;2022-09-17T11:07:19;9.00;;;2.47;;
16826;SDS011;8530;49.540;8.576;2022-09-17T11:10:01;7.20;;;2.80;;
16826;SDS011;8530;49.540;8.576;2022-09-17T11:12:44;9.60;;;2.30;;
16826;SDS011;8530;49.540;8.576;2022-09-17T11:15:26;5.80;;;2.07;;
16826;SDS011;8530;49.540;8.576;2022-09-17T11:18:02;7.93;;;2.53;;
16826;SDS011;8530;49.540;8.576;2022-09-17T11:20:56;6.17;;;1.60;;
16826;SDS011;8530;49.540;8.576;2022-09-17T11:23:41;3.93;;;1.40;;
16826;SDS011;8530;49.540;8.576;2022-09-17T11:26:27;6.23;;;1.57;;
16826;SDS011;8530;49.540;8.576;2022-09-17T11:28:59;10.43;;;1.87;;
16826;SDS011;8530;49.540;8.576;2022-09-17T11:31:38;4.47;;;2.00;;
16826;SDS011;8530;49.540;8.576;2022-09-17T11:34:18;3.80;;;1.90;;
16826;SDS011;8530;49.540;8.576;2022-09-17T11:36:53;5.13;;;1.70;;
16826;SDS011;8530;49.540;8.576;2022-09-17T11:39:25;4.93;;;1.73;;
16826;SDS011;8530;49.540;8.576;2022-09-17T11:41:59;5.50;;;1.97;;
16826;SDS011;8530;49.540;8.576;2022-09-17T11:44:29;5.60;;;1.90;;
16826;SDS011;8530;49.540;8.576;2022-09-17T11:46:59;5.40;;;2.07;;
16826;SDS011;8530;49.540;8.576;2022-09-17T11:49:35;4.50;;;1.60;;
16826;SDS011;8530;49.540;8.576;2022-09-17T11:52:07;7.63;;;1.53;;
16826;SDS011;8530;49.540;8.576;2022-09-17T11:54:39;6.50;;;1.97;;
16826;SDS011;8530;49.540;8.576;2022-09-17T11:57:15;6.70;;;2.50;;
16826;SDS011;8530;49.540;8.576;2022-09-17T11:59:45;5.10;;;2.60;;
16826;SDS011;8530;49.540;8.576;2022-09-17T12:02:19;8.33;;;3.00;;
16826;SDS011;8530;49.540;8.576;2022-09-17T12:04:51;2.87;;;2.00;;
16826;SDS011;8530;49.540;8.576;2022-09-17T12:07:26;4.33;;;1.60;;
16826;SDS011;8530;49.540;8.576;2022-09-17T12:10:16;4.73;;;1.50;;
16826;SDS011;8530;49.540;8.576;2022-09-17T12:12:53;6.10;;;1.87;;
16826;SDS011;8530;49.540;8.576;2022-09-17T12:15:23;3.07;;;1.30;;
16826;SDS011;8530;49.540;8.576;2022-09-17T12:17:55;4.03;;;1.70;;
16826;SDS011;8530;49.540;8.576;2022-09-17T12:20:30;2.03;;;1.10;;
16826;SDS011;8530;49.540;8.576;2022-09-17T12:23:02;11.63;;;2.00;;
16826;SDS011;8530;49.540;8.576;2022-09-17T12:25:37;4.00;;;1.70;;
16826;SDS011;8530;49.540;8.576;2022-09-17T12:28:14;9.20;;;1.63;;
16826;SDS011;8530;49.540;8.576;2022-09-17T12:30:45;2.87;;;1.50;;
16826;SDS011;8530;49.540;8.576;2022-09-17T12:33:22;9.27;;;2.67;;
16826;SDS011;8530;49.540;8.576;2022-09-17T12:36:02;4.40;;;1.77;;
16826;SDS011;8530;49.540;8.576;2022-09-17T12:38:51;4.87;;;2.20;;
16826;SDS011;8530;49.540;8.576;2022-09-17T12:41:31;3.13;;;1.40;;
16826;SDS011;8530;49.540;8.576;2022-09-17T12:44:17;4.23;;;1.30;;
16826;SDS011;8530;49.540;8.576;2022-09-17T12:46:58;2.77;;;2.00;;
16826;SDS011;8530;49.540;8.576;2022-09-17T12:49:45;3.43;;;1.97;;
16826;SDS011;8530;49.540;8.576;2022-09-17T12:52:26;3.70;;;1.70;;
16826;SDS011;8530;49.540;8.576;2022-09-17T12:55:16;3.30;;;1.33;;
16826;SDS011;8530;49.540;8.576;2022-09-17T12:57:54;4.93;;;1.30;;
16826;SDS011;8530;49.540;8.576;2022-09-17T13:00:31;8.70;;;2.10;;
16826;SDS011;8530;49.540;8.576;2022-09-17T13:03:05;4.87;;;1.60;;
16826;SDS011;8530;49.540;8.576;2022-09-17T13:05:47;5.43;;;2.23;;
16826;SDS011;8530;49.540;8.576;2022-09-17T13:08:42;4.40;;;1.50;;
16826;SDS011;8530;49.540;8.576;2022-09-17T13:11:33;5.80;;;2.13;;
16826;SDS011;8530;49.540;8.576;2022-09-17T13:14:32;5.00;;;1.23;;
16826;SDS011;8530;49.540;8.576;2022-09-17T13:17:16;5.73;;;1.50;;
16826;SDS011;8530;49.540;8.576;2022-09-17T13:19:50;3.83;;;2.20;;
16826;SDS011;8530;49.540;8.576;2022-09-17T13:22:26;4.20;;;1.70;;
16826;SDS011;8530;49.540;8.576;2022-09-17T13:25:01;3.83;;;1.60;;
16826;SDS011;8530;49.540;8.576;2022-09-17T13:27:30;4.33;;;1.50;;
16826;SDS011;8530;49.540;8.576;2022-09-17T13:30:00;5.33;;;1.23;;
16826;SDS011;8530;49.540;8.576;2022-09-17T13:38:12;1.97;;;1.10;;
16826;SDS011;8530;49.540;8.576;2022-09-17T13:40:40;2.80;;;1.40;;
16826;SDS011;8530;49.540;8.576;2022-09-17T13:43:07;2.47;;;1.27;;
16826;SDS011;8530;49.540;8.576;2022-09-17T13:48:36;3.57;;;2.07;;
16826;SDS011;8530;49.540;8.576;2022-09-17T13:54:09;3.37;;;1.30;;
16826;SDS011;8530;49.540;8.576;2022-09-17T13:56:37;2.00;;;1.20;;
16826;SDS011;8530;49.540;8.576;2022-09-17T13:59:07;5.13;;;2.93;;
16826;SDS011;8530;49.540;8.576;2022-09-17T14:07:49;4.23;;;1.57;;
16826;SDS011;8530;49.540;8.576;2022-09-17T14:13:23;2.20;;;1.10;;
16826;SDS011;8530;49.540;8.576;2022-09-17T14:19:01;2.50;;;1.53;;
16826;SDS011;8530;49.540;8.576;2022-09-17T14:21:54;2.27;;;1.37;;
16826;SDS011;8530;49.540;8.576;2022-09-17T14:24:27;1.73;;;1.10;;
16826;SDS011;8530;49.540;8.576;2022-09-17T14:30:05;1.13;;;0.90;;
16826;SDS011;8530;49.540;8.576;2022-09-17T14:32:39;1.10;;;0.90;;
16826;SDS011;8530;49.540;8.576;2022-09-17T14:35:14;2.57;;;1.60;;
16826;SDS011;8530;49.540;8.576;2022-09-17T14:37:46;4.40;;;1.80;;
16826;SDS011;8530;49.540;8.576;2022-09-17T14:40:18;5.60;;;1.30;;
16826;SDS011;8530;49.540;8.576;2022-09-17T14:42:47;2.97;;;1.30;;
16826;SDS011;8530;49.540;8.576;2022-09-17T14:45:18;5.37;;;1.30;;
16826;SDS011;8530;49.540;8.576;2022-09-17T14:47:48;5.37;;;1.00;;
16826;SDS011;8530;49.540;8.576;2022-09-17T14:50:37;3.50;;;1.10;;
16826;SDS011;8530;49.540;8.576;2022-09-17T14:53:06;2.40;;;1.67;;
16826;SDS011;8530;49.540;8.576;2022-09-17T14:55:38;5.17;;;1.93;;
16826;SDS011;8530;49.540;8.576;2022-09-17T14:58:18;2.90;;;1.00;;
16826;SDS011;8530;49.540;8.576;2022-09-17T15:00:55;1.93;;;1.23;;
16826;SDS011;8530;49.540;8.576;2022-09-17T15:03:22;1.70;;;1.00;;
16826;SDS011;8530;49.540;8.576;2022-09-17T15:05:51;1.20;;;1.00;;
16826;SDS011;8530;49.540;8.576;2022-09-17T15:08:18;1.77;;;0.90;;
16826;SDS011;8530;49.540;8.576;2022-09-17T15:10:48;1.40;;;1.00;;
16826;SDS011;8530;49.540;8.576;2022-09-17T15:13:17;1.53;;;1.20;;
16826;SDS011;8530;49.540;8.576;2022-09-17T15:15:50;1.83;;;1.03;;
16826;SDS011;8530;49.540;8.576;2022-09-17T15:18:30;1.30;;;1.03;;
16826;SDS011;8530;49.540;8.576;2022-09-17T15:21:03;1.60;;;1.13;;
16826;SDS011;8530;49.540;8.576;2022-09-17T15:23:39;1.40;;;1.17;;
16826;SDS011;8530;49.540;8.576;2022-09-17T15:26:07;3.03;;;1.40;;
16826;SDS011;8530;49.540;8.576;2022-09-17T15:28:35;2.20;;;1.20;;
16826;SDS011;8530;49.540;8.576;2022-09-17T15:31:04;1.10;;;0.90;;
16826;SDS011;8530;49.540;8.576;2022-09-17T15:33:37;3.77;;;2.47;;
16826;SDS011;8530;49.540;8.576;2022-09-17T15:36:13;2.53;;;1.07;;
16826;SDS011;8530;49.540;8.576;2022-09-17T15:38:44;1.87;;;1.13;;
16826;SDS011;8530;49.540;8.576;2022-09-17T15:41:25;2.70;;;1.40;;
16826;SDS011;8530;49.540;8.576;2022-09-17T15:44:10;3.20;;;1.57;;
16826;SDS011;8530;49.540;8.576;2022-09-17T15:46:41;2.60;;;1.30;;
16826;SDS011;8530;49.540;8.576;2022-09-17T15:51:53;5.83;;;1.90;;
16826;SDS011;8530;49.540;8.576;2022-09-17T15:54:26;3.40;;;1.40;;
16826;SDS011;8530;49.540;8.576;2022-09-17T15:56:56;1.40;;;1.10;;
16826;SDS011;8530;49.540;8.576;2022-09-17T15:59:26;2.20;;;1.10;;
16826;SDS011;8530;49.540;8.576;2022-09-17T16:01:54;1.97;;;1.00;;
16826;SDS011;8530;49.540;8.576;2022-09-17T16:04:26;2.43;;;1.50;;
16826;SDS011;8530;49.540;8.576;2022-09-17T16:06:58;1.20;;;1.07;;
16826;SDS011;8530;49.540;8.576;2022-09-17T16:09:40;2.00;;;1.30;;
16826;SDS011;8530;49.540;8.576;2022-09-17T16:14:37;2.43;;;1.53;;